Time;durP1;ratioP1;P1;durP2;ratioP2;P2;SDS_P1;SDS_P2;PMS_P1;PMS_P2;Temp;Humidity;BMP_temperature;BMP_pressure;BME280_temperature;BME280_humidity;BME280_pressure;Samples;Min_cycle;Max_cycle;Signal;HPM_P1;HPM_P2
2022/10/16 00:02:19;;;;;;;;;;;;;;;20.54;50.50;100723.56;5140184;27;19923;-39
2022/10/16 00:04:45;;;;;;;;;;;;;;;20.54;50.60;100726.31;5130617;27;20445;-39
2022/10/16 00:07:11;;;;;;;;;;;;;;;20.54;50.55;100729.09;5133710;27;20271;-39
2022/10/16 00:09:36;;;;;;;;;;;;;;;20.53;50.61;100721.91;5136020;27;19923;-40
2022/10/16 00:12:04;;;;;;;;;;;;;;;20.54;50.70;100717.19;5134902;27;19931;-39
2022/10/16 00:14:29;;;;;;;;;;;;;;;20.54;50.50;100731.03;5137348;27;19974;-39
2022/10/16 00:16:55;;;;;;;;;;;;;;;20.54;50.54;100740.16;5132977;27;20278;-39
2022/10/16 00:19:20;;;;;;;;;;;;;;;20.56;50.64;100739.88;5138862;27;19980;-39
2022/10/16 00:21:46;;;;;;;;;;;;;;;20.54;50.50;100736.56;5135360;27;19937;-38
2022/10/16 00:24:11;;;;;;;;;;;;;;;20.54;50.42;100731.84;5139738;27;19950;-39
2022/10/16 00:26:37;;;;;;;;;;;;;;;20.56;50.57;100733.53;5142066;27;19930;-39
2022/10/16 00:29:03;;;;;;;;;;;;;;;20.56;50.48;100733.53;5121349;27;20370;-39
2022/10/16 00:31:29;;;;;;;;;;;;;;;20.54;50.48;100728.28;5137414;27;20294;-39
2022/10/16 00:33:55;;;;;;;;;;;;;;;20.54;50.51;100726.31;5136151;27;20018;-39
2022/10/16 00:36:21;;;;;;;;;;;;;;;20.54;50.67;100722.72;5137930;27;20497;-39
2022/10/16 00:38:47;;;;;;;;;;;;;;;20.55;50.63;100724.38;5114343;27;19978;-39
2022/10/16 00:41:14;;;;;;;;;;;;;;;20.55;50.56;100735.44;5117179;27;20060;-41
2022/10/16 00:43:40;;;;;;;;;;;;;;;20.54;50.69;100729.09;5136306;27;20422;-39
2022/10/16 00:46:15;;;;;;;;;;;;;;;20.56;50.48;100722.47;5112229;27;19948;-40
2022/10/16 00:48:41;;;;;;;;;;;;;;;20.54;50.56;100722.72;5116226;27;20439;-39
2022/10/16 00:51:07;;;;;;;;;;;;;;;20.55;50.60;100707.78;5131762;27;19992;-39
2022/10/16 00:53:33;;;;;;;;;;;;;;;20.55;50.48;100710.53;5142141;27;19968;-39
2022/10/16 00:55:58;;;;;;;;;;;;;;;20.56;50.56;100716.94;5111927;27;21131;-39
2022/10/16 00:58:24;;;;;;;;;;;;;;;20.56;50.58;100714.16;5137221;27;19942;-39
2022/10/16 01:00:49;;;;;;;;;;;;;;;20.54;50.54;100715.25;5134552;27;19924;-39
2022/10/16 01:03:31;;;;;;;;;;;;;;;20.56;50.54;100719.69;5133206;27;20299;-39
2022/10/16 01:06:07;;;;;;;;;;;;;;;20.56;50.61;100714.97;5130182;27;20017;-39
2022/10/16 01:08:38;;;;;;;;;;;;;;;20.56;50.63;100719.69;5117205;27;19955;-39
2022/10/16 01:11:15;;;;;;;;;;;;;;;20.56;50.60;100739.06;5137630;27;20029;-39
2022/10/16 01:13:42;;;;;;;;;;;;;;;20.56;50.65;100731.59;5138177;27;19981;-39
2022/10/16 01:16:13;;;;;;;;;;;;;;;20.56;50.70;100736.28;5132057;27;19965;-39
2022/10/16 01:18:42;;;;;;;;;;;;;;;20.56;50.70;100733.53;5115290;28;20018;-39
2022/10/16 01:21:10;;;;;;;;;;;;;;;20.55;50.62;100732.69;5130810;27;20067;-39
2022/10/16 01:23:38;;;;;;;;;;;;;;;20.56;50.57;100747.34;5117332;27;20026;-39
2022/10/16 01:26:18;;;;;;;;;;;;;;;20.56;50.77;100741.81;5140079;27;20342;-39
2022/10/16 01:28:49;;;;;;;;;;;;;;;20.54;50.48;100733.81;5137665;27;19976;-40
2022/10/16 01:31:17;;;;;;;;;;;;;;;20.55;50.60;100732.69;5141119;27;19924;-40
2022/10/16 01:33:43;;;;;;;;;;;;;;;20.56;50.55;100728.00;5136515;27;20457;-39
2022/10/16 01:36:12;;;;;;;;;;;;;;;20.55;50.62;100729.91;5116756;28;19923;-41
2022/10/16 01:38:38;;;;;;;;;;;;;;;20.54;50.44;100722.72;5133304;27;20013;-39
2022/10/16 01:41:06;;;;;;;;;;;;;;;20.55;50.49;100729.91;5120236;27;20402;-39
2022/10/16 01:43:33;;;;;;;;;;;;;;;20.55;50.43;100729.91;5135908;27;20017;-39
2022/10/16 01:45:59;;;;;;;;;;;;;;;20.56;50.66;100733.53;5134361;27;20068;-40
2022/10/16 01:48:24;;;;;;;;;;;;;;;20.56;50.74;100741.81;5132558;27;19927;-38
2022/10/16 01:51:06;;;;;;;;;;;;;;;20.56;50.70;100744.59;5135778;27;19931;-39
2022/10/16 01:53:32;;;;;;;;;;;;;;;20.56;50.51;100739.06;5138706;27;19962;-39
2022/10/16 01:55:57;;;;;;;;;;;;;;;20.56;50.57;100736.28;5132394;27;20276;-39
2022/10/16 01:58:23;;;;;;;;;;;;;;;20.56;50.64;100737.13;5137459;27;19969;-40
2022/10/16 02:00:48;;;;;;;;;;;;;;;20.56;50.68;100736.28;5137058;27;19930;-42
2022/10/16 02:03:16;;;;;;;;;;;;;;;20.56;50.64;100739.06;5140680;27;19931;-39
2022/10/16 02:05:44;;;;;;;;;;;;;;;20.56;50.58;100733.53;5116855;27;20397;-39
2022/10/16 02:08:09;;;;;;;;;;;;;;;20.54;50.51;100731.03;5136276;27;20011;-40
2022/10/16 02:10:35;;;;;;;;;;;;;;;20.56;50.67;100752.91;5135205;27;19924;-39
2022/10/16 02:13:03;;;;;;;;;;;;;;;20.56;50.53;100750.13;5140158;27;19927;-39
2022/10/16 02:15:29;;;;;;;;;;;;;;;20.55;50.66;100752.03;5136546;27;20022;-39
2022/10/16 02:17:54;;;;;;;;;;;;;;;20.54;50.52;100744.88;5134537;27;20527;-43
2022/10/16 02:20:21;;;;;;;;;;;;;;;20.54;50.56;100750.41;5133507;27;19924;-39
2022/10/16 02:22:47;;;;;;;;;;;;;;;20.55;50.65;100752.03;5138531;27;20021;-39
2022/10/16 02:25:15;;;;;;;;;;;;;;;20.54;50.72;100751.22;5142585;27;20052;-39
2022/10/16 02:28:00;;;;;;;;;;;;;;;20.56;50.81;100763.97;5120473;27;20006;-40
2022/10/16 02:30:29;;;;;;;;;;;;;;;20.56;50.55;100752.91;5124050;27;19993;-40
2022/10/16 02:32:54;;;;;;;;;;;;;;;20.56;50.66;100763.97;5123837;27;20005;-40
2022/10/16 02:35:20;;;;;;;;;;;;;;;20.56;50.58;100772.25;5134163;27;20282;-39
2022/10/16 02:37:46;;;;;;;;;;;;;;;20.56;50.64;100764.78;5137640;27;20478;-38
2022/10/16 02:40:12;;;;;;;;;;;;;;;20.55;50.55;100749.28;5133875;27;19927;-39
2022/10/16 02:42:38;;;;;;;;;;;;;;;20.56;50.51;100763.97;5132284;27;20401;-38
2022/10/16 02:45:05;;;;;;;;;;;;;;;20.56;50.73;100756.47;5134150;27;19931;-39
2022/10/16 02:47:31;;;;;;;;;;;;;;;20.56;50.54;100756.47;5113417;27;20029;-39
2022/10/16 02:49:56;;;;;;;;;;;;;;;20.56;50.51;100755.66;5132493;27;20560;-39
2022/10/16 02:52:22;;;;;;;;;;;;;;;20.56;50.62;100747.34;5138573;27;19943;-39
2022/10/16 02:54:47;;;;;;;;;;;;;;;20.56;50.74;100759.25;5135748;27;19923;-39
2022/10/16 02:57:13;;;;;;;;;;;;;;;20.56;50.54;100758.44;5135052;27;19954;-40
2022/10/16 02:59:38;;;;;;;;;;;;;;;20.54;50.73;100753.16;5139554;27;19928;-41
2022/10/16 03:02:04;;;;;;;;;;;;;;;20.57;50.64;100754.53;5136755;27;19931;-40
2022/10/16 03:04:29;;;;;;;;;;;;;;;20.55;50.47;100749.28;5135602;27;19923;-40
2022/10/16 03:06:55;;;;;;;;;;;;;;;20.56;50.54;100761.19;5138190;27;19931;-39
2022/10/16 03:09:21;;;;;;;;;;;;;;;20.56;50.59;100763.97;5136220;27;19934;-39
2022/10/16 03:11:46;;;;;;;;;;;;;;;20.56;50.54;100756.47;5137680;27;19931;-39
2022/10/16 03:14:12;;;;;;;;;;;;;;;20.56;50.67;100755.66;5135224;27;19932;-39
2022/10/16 03:16:37;;;;;;;;;;;;;;;20.54;50.72;100750.41;5134025;27;20298;-38
2022/10/16 03:19:03;;;;;;;;;;;;;;;20.56;50.65;100750.13;5133199;27;19931;-39
2022/10/16 03:21:29;;;;;;;;;;;;;;;20.56;50.46;100747.34;5133756;27;19931;-40
2022/10/16 03:23:54;;;;;;;;;;;;;;;20.56;50.78;100750.94;5138622;27;20010;-39
2022/10/16 03:26:20;;;;;;;;;;;;;;;20.56;50.55;100747.34;5138710;27;20367;-40
2022/10/16 03:28:46;;;;;;;;;;;;;;;20.56;50.77;100750.13;5138848;27;19928;-39
2022/10/16 03:31:11;;;;;;;;;;;;;;;20.55;50.55;100757.56;5138066;27;19927;-40
2022/10/16 03:33:37;;;;;;;;;;;;;;;20.57;50.71;100757.31;5140987;27;19923;-39
2022/10/16 03:36:03;;;;;;;;;;;;;;;20.57;50.62;100757.31;5135028;27;19927;-39
2022/10/16 03:38:28;;;;;;;;;;;;;;;20.57;50.57;100765.59;5137037;27;19938;-40
2022/10/16 03:40:54;;;;;;;;;;;;;;;20.56;50.62;100766.72;5135108;27;19924;-39
2022/10/16 03:43:19;;;;;;;;;;;;;;;20.55;50.67;100765.88;5134241;27;19991;-39
2022/10/16 03:45:45;;;;;;;;;;;;;;;20.56;50.56;100767.53;5136520;27;19923;-39
2022/10/16 03:48:10;;;;;;;;;;;;;;;20.56;50.71;100762.00;5136910;27;20293;-40
2022/10/16 03:50:36;;;;;;;;;;;;;;;20.56;50.51;100763.97;5136517;27;19923;-40
2022/10/16 03:53:02;;;;;;;;;;;;;;;20.56;50.65;100769.50;5138016;27;19931;-38
2022/10/16 03:55:27;;;;;;;;;;;;;;;20.56;50.57;100777.78;5131440;27;19923;-39
2022/10/16 03:57:53;;;;;;;;;;;;;;;20.56;50.68;100772.25;5131600;27;19931;-39
2022/10/16 04:00:19;;;;;;;;;;;;;;;20.57;50.50;100773.91;5134128;27;20247;-39
2022/10/16 04:02:44;;;;;;;;;;;;;;;20.56;50.67;100772.25;5136937;27;19982;-40
2022/10/16 04:05:15;;;;;;;;;;;;;;;20.55;50.55;100785.25;5130149;27;20270;-39
2022/10/16 04:07:40;;;;;;;;;;;;;;;20.57;50.72;100787.72;5136648;27;19930;-39
2022/10/16 04:10:06;;;;;;;;;;;;;;;20.56;50.72;100788.84;5139968;27;20149;-38
2022/10/16 04:12:31;;;;;;;;;;;;;;;20.56;50.39;100792.44;5133014;27;19926;-40
2022/10/16 04:14:57;;;;;;;;;;;;;;;20.57;50.41;100782.19;5140739;27;19931;-39
2022/10/16 04:17:22;;;;;;;;;;;;;;;20.57;50.57;100796.03;5139061;27;19931;-38
2022/10/16 04:19:49;;;;;;;;;;;;;;;20.56;50.68;100797.97;5133157;27;19927;-39
2022/10/16 04:22:14;;;;;;;;;;;;;;;20.57;50.72;100804.34;5136322;27;20089;-38
2022/10/16 04:24:40;;;;;;;;;;;;;;;20.56;50.63;100811.81;5136564;27;20255;-38
2022/10/16 04:27:05;;;;;;;;;;;;;;;20.56;50.49;100817.34;5132629;27;19924;-39
2022/10/16 04:29:31;;;;;;;;;;;;;;;20.56;50.55;100828.41;5140382;27;19923;-39
2022/10/16 04:31:56;;;;;;;;;;;;;;;20.57;50.70;100820.94;5140761;27;20263;-39
2022/10/16 04:34:22;;;;;;;;;;;;;;;20.56;50.62;100820.13;5136338;27;19934;-40
2022/10/16 04:36:49;;;;;;;;;;;;;;;20.56;50.62;100814.59;5133272;27;19930;-39
2022/10/16 04:39:14;;;;;;;;;;;;;;;20.56;50.72;100806.28;5131231;27;20037;-39
2022/10/16 04:41:40;;;;;;;;;;;;;;;20.57;50.57;100801.56;5133077;27;19923;-39
2022/10/16 04:44:05;;;;;;;;;;;;;;;20.56;50.54;100799.94;5133909;27;19924;-39
2022/10/16 04:46:31;;;;;;;;;;;;;;;20.57;50.75;100812.63;5131142;27;19975;-39
2022/10/16 04:48:57;;;;;;;;;;;;;;;20.57;50.56;100829.22;5130078;27;19927;-39
2022/10/16 04:51:22;;;;;;;;;;;;;;;20.57;50.61;100827.28;5134657;27;19980;-40
2022/10/16 04:53:48;;;;;;;;;;;;;;;20.57;50.59;100832.00;5137537;27;19931;-38
2022/10/16 04:56:14;;;;;;;;;;;;;;;20.57;50.53;100838.34;5135037;27;19954;-39
2022/10/16 04:58:40;;;;;;;;;;;;;;;20.56;50.64;100836.72;5132574;27;19967;-39
2022/10/16 05:01:05;;;;;;;;;;;;;;;20.56;50.58;100845.00;5135909;27;19992;-40
2022/10/16 05:03:31;;;;;;;;;;;;;;;20.56;50.65;100845.00;5137617;27;19935;-40
2022/10/16 05:05:57;;;;;;;;;;;;;;;20.56;50.73;100845.00;5133786;27;19931;-39
2022/10/16 05:08:22;;;;;;;;;;;;;;;20.58;50.56;100850.25;5138691;27;19961;-39
2022/10/16 05:10:48;;;;;;;;;;;;;;;20.56;50.48;100842.25;5116652;27;19927;-38
2022/10/16 05:13:13;;;;;;;;;;;;;;;20.56;50.64;100850.53;5132857;27;19946;-39
2022/10/16 05:15:39;;;;;;;;;;;;;;;20.56;50.47;100853.31;5139607;27;19923;-38
2022/10/16 05:18:04;;;;;;;;;;;;;;;20.56;50.76;100856.09;5132843;27;19938;-40
2022/10/16 05:20:30;;;;;;;;;;;;;;;20.56;50.53;100858.84;5132773;27;20514;-39
2022/10/16 05:22:55;;;;;;;;;;;;;;;20.56;50.56;100860.78;5135897;27;19932;-41
2022/10/16 05:25:21;;;;;;;;;;;;;;;20.57;50.79;100873.50;5140102;27;19923;-39
2022/10/16 05:27:47;;;;;;;;;;;;;;;20.57;50.78;100866.03;5139274;27;20274;-38
2022/10/16 05:30:13;;;;;;;;;;;;;;;20.56;50.75;100867.16;5119717;27;20225;-38
2022/10/16 05:32:39;;;;;;;;;;;;;;;20.56;50.66;100864.38;5137107;27;19924;-39
2022/10/16 05:35:04;;;;;;;;;;;;;;;20.57;50.65;100867.97;5136560;27;19942;-39
2022/10/16 05:37:35;;;;;;;;;;;;;;;20.57;50.56;100873.50;5120315;27;19980;-39
2022/10/16 05:40:01;;;;;;;;;;;;;;;20.56;50.57;100872.69;5138290;27;19931;-39
2022/10/16 05:42:26;;;;;;;;;;;;;;;20.57;50.62;100884.56;5138424;27;20390;-39
2022/10/16 05:44:52;;;;;;;;;;;;;;;20.57;50.49;100890.94;5138304;27;19931;-39
2022/10/16 05:47:17;;;;;;;;;;;;;;;20.57;50.78;100890.09;5134579;27;20323;-39
2022/10/16 05:49:43;;;;;;;;;;;;;;;20.57;50.56;100884.56;5135616;27;19976;-39
2022/10/16 05:52:08;;;;;;;;;;;;;;;20.56;50.73;100891.22;5136760;27;19923;-39
2022/10/16 05:54:34;;;;;;;;;;;;;;;20.56;50.55;100891.22;5141278;27;20381;-40
2022/10/16 05:57:00;;;;;;;;;;;;;;;20.57;50.72;100887.34;5130156;27;19924;-39
2022/10/16 05:59:25;;;;;;;;;;;;;;;20.56;50.56;100905.88;5141291;27;19931;-39
2022/10/16 06:01:52;;;;;;;;;;;;;;;20.57;50.67;100915.00;5138459;27;19928;-39
2022/10/16 06:04:17;;;;;;;;;;;;;;;20.57;50.71;100904.75;5139550;27;20002;-39
2022/10/16 06:06:43;;;;;;;;;;;;;;;20.57;50.59;100906.69;5137911;27;19927;-40
2022/10/16 06:09:09;;;;;;;;;;;;;;;20.57;50.67;100912.22;5139847;27;19923;-40
2022/10/16 06:11:34;;;;;;;;;;;;;;;20.58;50.56;100919.41;5133682;27;19935;-41
2022/10/16 06:14:02;;;;;;;;;;;;;;;20.57;50.67;100921.34;5142855;27;19930;-39
2022/10/16 06:16:28;;;;;;;;;;;;;;;20.56;50.62;100914.19;5136022;27;19923;-39
2022/10/16 06:18:54;;;;;;;;;;;;;;;20.57;50.54;100915.81;5124803;27;19928;-39
2022/10/16 06:21:21;;;;;;;;;;;;;;;20.56;50.54;100916.94;5119614;27;20315;-40
2022/10/16 06:23:47;;;;;;;;;;;;;;;20.57;50.49;100924.13;5116953;28;20065;-41
2022/10/16 06:26:13;;;;;;;;;;;;;;;20.57;50.67;100928.84;5117549;27;19931;-39
2022/10/16 06:28:39;;;;;;;;;;;;;;;20.57;50.82;100928.84;5117446;27;20002;-39
2022/10/16 06:31:05;;;;;;;;;;;;;;;20.56;50.54;100933.53;5136756;27;20308;-40
2022/10/16 06:33:33;;;;;;;;;;;;;;;20.57;50.55;100928.84;5136906;27;20368;-39
2022/10/16 06:36:01;;;;;;;;;;;;;;;20.57;50.78;100934.38;5114654;27;19931;-39
2022/10/16 06:38:26;;;;;;;;;;;;;;;20.56;50.57;100936.31;5124431;27;19987;-39
2022/10/16 06:40:53;;;;;;;;;;;;;;;20.57;50.57;100949.03;5141335;27;19935;-39
2022/10/16 06:43:18;;;;;;;;;;;;;;;20.57;50.65;100953.75;5137270;27;19980;-40
2022/10/16 06:45:49;;;;;;;;;;;;;;;20.56;50.58;100952.09;5129150;27;20271;-38
2022/10/16 06:48:15;;;;;;;;;;;;;;;20.56;50.46;100955.69;5134733;27;20076;-39
2022/10/16 06:50:40;;;;;;;;;;;;;;;20.57;50.78;100970.34;5137256;27;19932;-40
2022/10/16 06:53:06;;;;;;;;;;;;;;;20.57;50.71;100967.56;5136435;27;20400;-40
2022/10/16 06:55:31;;;;;;;;;;;;;;;20.57;50.56;100965.63;5138448;27;19927;-39
2022/10/16 06:57:57;;;;;;;;;;;;;;;20.56;50.64;100975.06;5134960;27;19949;-39
2022/10/16 07:00:23;;;;;;;;;;;;;;;20.57;50.66;100975.88;5136478;27;20429;-39
2022/10/16 07:02:48;;;;;;;;;;;;;;;20.58;50.56;100983.06;5141262;27;19923;-39
2022/10/16 07:05:14;;;;;;;;;;;;;;;20.57;50.78;100984.16;5140192;27;19985;-39
2022/10/16 07:07:39;;;;;;;;;;;;;;;20.57;50.62;100990.53;5134892;27;20173;-39
2022/10/16 07:10:05;;;;;;;;;;;;;;;20.57;50.67;100998.00;5136899;27;19924;-39
2022/10/16 07:12:30;;;;;;;;;;;;;;;20.57;50.73;100998.00;5138900;27;20522;-39
2022/10/16 07:14:56;;;;;;;;;;;;;;;20.57;50.64;101011.84;5133702;27;19923;-39
2022/10/16 07:17:21;;;;;;;;;;;;;;;20.57;50.62;101003.53;5135859;27;19992;-39
2022/10/16 07:19:47;;;;;;;;;;;;;;;20.56;50.70;101011.00;5133991;27;19923;-40
2022/10/16 07:22:12;;;;;;;;;;;;;;;20.57;50.73;101014.59;5136187;27;20366;-39
2022/10/16 07:24:38;;;;;;;;;;;;;;;20.57;50.75;101018.19;5128143;27;19923;-39
2022/10/16 07:27:03;;;;;;;;;;;;;;;20.57;50.62;101020.97;5138228;27;19934;-40
2022/10/16 07:29:29;;;;;;;;;;;;;;;20.56;50.55;101030.38;5137434;27;20427;-39
2022/10/16 07:31:55;;;;;;;;;;;;;;;20.56;50.50;101029.56;5139889;27;19938;-39
2022/10/16 07:34:21;;;;;;;;;;;;;;;20.57;50.74;101036.75;5138258;27;19938;-39
2022/10/16 07:36:47;;;;;;;;;;;;;;;20.56;50.74;101030.38;5133157;27;19971;-39
2022/10/16 07:39:13;;;;;;;;;;;;;;;20.57;50.62;101039.50;5132780;27;19931;-40
2022/10/16 07:41:38;;;;;;;;;;;;;;;20.57;50.77;101043.09;5134116;27;20290;-39
2022/10/16 07:44:04;;;;;;;;;;;;;;;20.56;50.54;101049.75;5139416;27;19924;-39
2022/10/16 07:46:30;;;;;;;;;;;;;;;20.57;50.64;101050.56;5133360;27;19923;-38
2022/10/16 07:48:56;;;;;;;;;;;;;;;20.57;50.67;101056.09;5138875;27;20547;-38
2022/10/16 07:51:22;;;;;;;;;;;;;;;20.57;50.62;101050.56;5139316;27;19923;-40
2022/10/16 07:53:47;;;;;;;;;;;;;;;20.57;50.73;101061.66;5122058;27;19954;-38
2022/10/16 07:56:13;;;;;;;;;;;;;;;20.57;50.73;101067.19;5135146;27;19942;-39
2022/10/16 07:58:39;;;;;;;;;;;;;;;20.57;50.65;101064.41;5132176;27;20370;-40
2022/10/16 08:01:05;;;;;;;;;;;;;;;20.57;50.63;101067.19;5113237;27;19923;-39
2022/10/16 08:03:31;;;;;;;;;;;;;;;20.57;50.63;101067.19;5132185;27;19938;-38
2022/10/16 08:05:56;;;;;;;;;;;;;;;20.57;50.84;101076.28;5134055;27;19927;-39
2022/10/16 08:08:22;;;;;;;;;;;;;;;20.57;50.73;101078.25;5120834;27;20385;-39
2022/10/16 08:10:47;;;;;;;;;;;;;;;20.58;50.72;101077.13;5133149;27;19923;-38
2022/10/16 08:13:14;;;;;;;;;;;;;;;20.57;50.72;101081.00;5136722;27;19927;-39
2022/10/16 08:15:41;;;;;;;;;;;;;;;20.58;50.90;101088.19;5129935;27;19966;-39
2022/10/16 08:18:06;;;;;;;;;;;;;;;20.58;50.77;101089.00;5118805;27;19974;-39
2022/10/16 08:20:33;;;;;;;;;;;;;;;20.57;50.61;101094.84;5138196;27;19923;-40
2022/10/16 08:22:58;;;;;;;;;;;;;;;20.58;50.60;101096.50;5132161;27;20014;-39
2022/10/16 08:25:24;;;;;;;;;;;;;;;20.58;50.77;101104.78;5117168;27;19928;-39
2022/10/16 08:27:50;;;;;;;;;;;;;;;20.59;50.57;101106.44;5135185;27;19930;-38
2022/10/16 08:30:16;;;;;;;;;;;;;;;20.57;50.71;101097.63;5118994;27;19975;-40
2022/10/16 08:32:42;;;;;;;;;;;;;;;20.56;50.64;101102.31;5118214;27;19966;-38
2022/10/16 08:35:09;;;;;;;;;;;;;;;20.57;50.49;101109.50;5135102;27;19930;-39
2022/10/16 08:37:34;;;;;;;;;;;;;;;20.57;50.75;101119.75;5114333;27;20377;-39
2022/10/16 08:40:00;;;;;;;;;;;;;;;20.57;50.70;101108.69;5136271;27;19930;-38
2022/10/16 08:42:29;;;;;;;;;;;;;;;20.57;50.60;101120.56;5132103;27;19924;-38
2022/10/16 08:45:00;;;;;;;;;;;;;;;20.58;50.79;101124.16;5114527;27;20026;-41
2022/10/16 08:47:26;;;;;;;;;;;;;;;20.56;50.74;101130.00;5135132;27;19958;-39
2022/10/16 08:50:01;;;;;;;;;;;;;;;20.58;50.69;101129.69;5132194;27;19955;-39
2022/10/16 08:52:29;;;;;;;;;;;;;;;20.57;50.67;101134.41;5115845;27;19970;-39
2022/10/16 08:54:55;;;;;;;;;;;;;;;20.57;50.72;101147.41;5118393;28;20290;-40
2022/10/16 08:57:21;;;;;;;;;;;;;;;20.57;50.77;101153.78;5135234;27;19999;-39
2022/10/16 08:59:50;;;;;;;;;;;;;;;20.57;50.75;101156.53;5118484;28;19980;-39
2022/10/16 09:02:35;;;;;;;;;;;;;;;20.57;50.63;101156.53;5121925;27;20029;-40
2022/10/16 09:05:04;;;;;;;;;;;;;;;20.58;50.80;101162.91;5119419;27;20010;-40
2022/10/16 09:07:34;;;;;;;;;;;;;;;20.58;50.56;101151.81;5122274;27;20385;-40
2022/10/16 09:10:09;;;;;;;;;;;;;;;20.57;50.71;101159.31;5136046;27;19975;-39
2022/10/16 09:12:37;;;;;;;;;;;;;;;20.57;50.56;101156.53;5136134;27;19966;-40
2022/10/16 09:15:07;;;;;;;;;;;;;;;20.58;50.75;101168.44;5114862;28;20006;-39
2022/10/16 09:17:39;;;;;;;;;;;;;;;20.58;50.75;101165.66;5121458;27;20018;-42
2022/10/16 09:20:24;;;;;;;;;;;;;;;20.57;50.69;101170.38;5118626;27;19959;-39
2022/10/16 09:22:51;;;;;;;;;;;;;;;20.58;50.55;101165.66;5123538;27;20365;-40
2022/10/16 09:25:18;;;;;;;;;;;;;;;20.58;50.60;101165.66;5138513;27;20033;-39
2022/10/16 09:27:44;;;;;;;;;;;;;;;20.57;50.65;101170.38;5121583;27;20063;-40
2022/10/16 09:30:11;;;;;;;;;;;;;;;20.57;50.61;101181.44;5135925;27;20062;-39
2022/10/16 09:32:37;;;;;;;;;;;;;;;20.57;50.54;101175.91;5139156;27;19994;-39
2022/10/16 09:35:03;;;;;;;;;;;;;;;20.57;50.78;101178.69;5136161;27;20031;-40
2022/10/16 09:37:28;;;;;;;;;;;;;;;20.58;50.81;101176.72;5136248;27;20414;-39
2022/10/16 09:39:54;;;;;;;;;;;;;;;20.57;50.79;101181.44;5140065;27;19973;-40
2022/10/16 09:42:24;;;;;;;;;;;;;;;20.57;50.74;101181.44;5133681;27;19962;-39
2022/10/16 09:44:50;;;;;;;;;;;;;;;20.58;50.80;101179.50;5133904;27;20013;-41
2022/10/16 09:47:17;;;;;;;;;;;;;;;20.57;50.88;101178.69;5118246;28;19963;-41
2022/10/16 09:49:55;;;;;;;;;;;;;;;20.57;50.70;101175.91;5141378;27;20016;-39
2022/10/16 09:52:20;;;;;;;;;;;;;;;20.57;50.71;101173.16;5135798;27;19961;-39
2022/10/16 09:55:06;;;;;;;;;;;;;;;20.57;50.62;101180.63;5138542;27;20427;-38
2022/10/16 09:57:31;;;;;;;;;;;;;;;20.56;50.80;101182.56;5119873;28;20350;-39
2022/10/16 09:59:57;;;;;;;;;;;;;;;20.57;50.71;101177.84;5134075;27;19930;-40
2022/10/16 10:02:30;;;;;;;;;;;;;;;20.57;50.72;101175.91;5136323;27;19927;-39
2022/10/16 10:04:56;;;;;;;;;;;;;;;20.57;50.67;101180.63;5137027;27;20006;-39
2022/10/16 10:07:26;;;;;;;;;;;;;;;20.58;50.61;101174.78;5139611;27;19994;-39
2022/10/16 10:09:52;;;;;;;;;;;;;;;20.57;50.89;101181.44;5118777;27;20010;-39
2022/10/16 10:12:22;;;;;;;;;;;;;;;20.57;50.74;101177.84;5142889;27;20197;-40
2022/10/16 10:14:53;;;;;;;;;;;;;;;20.58;50.70;101174.78;5142249;27;19934;-39
2022/10/16 10:17:24;;;;;;;;;;;;;;;20.58;50.84;101179.50;5137649;27;20023;-39
2022/10/16 10:19:53;;;;;;;;;;;;;;;20.57;50.68;101183.38;5131432;27;20302;-41
2022/10/16 10:22:21;;;;;;;;;;;;;;;20.57;50.82;101192.50;5135347;27;19951;-39
2022/10/16 10:24:55;;;;;;;;;;;;;;;20.57;50.86;101189.75;5138214;27;20017;-38
2022/10/16 10:27:20;;;;;;;;;;;;;;;20.57;50.80;101195.28;5139724;27;19962;-41
2022/10/16 10:29:49;;;;;;;;;;;;;;;20.57;50.60;101189.75;5129601;27;20348;-38
2022/10/16 10:32:21;;;;;;;;;;;;;;;20.58;50.60;101193.34;5137330;27;20022;-39
2022/10/16 10:35:05;;;;;;;;;;;;;;;20.58;50.78;101198.88;5142369;27;20013;-38
2022/10/16 10:37:37;;;;;;;;;;;;;;;20.57;50.57;101191.69;5141563;27;20030;-39
2022/10/16 10:40:22;;;;;;;;;;;;;;;20.58;50.72;101193.34;5118558;27;19966;-40
2022/10/16 10:42:53;;;;;;;;;;;;;;;20.57;50.84;101200.00;5120187;27;19962;-41
2022/10/16 10:45:22;;;;;;;;;;;;;;;20.56;50.65;101199.16;5114192;27;19967;-40
2022/10/16 10:48:08;;;;;;;;;;;;;;;20.57;50.62;101195.28;5133077;27;20007;-39
2022/10/16 10:50:40;;;;;;;;;;;;;;;20.56;50.80;101193.63;5122470;27;20089;-39
2022/10/16 10:53:14;;;;;;;;;;;;;;;20.57;50.83;101202.75;5137745;27;21335;-39
2022/10/16 10:55:43;;;;;;;;;;;;;;;20.57;50.66;101203.56;5134509;27;20017;-39
2022/10/16 10:58:15;;;;;;;;;;;;;;;20.57;50.80;101211.88;5116163;27;20773;-38
2022/10/16 11:01:00;;;;;;;;;;;;;;;20.57;50.73;101209.13;5141492;27;19931;-39
2022/10/16 11:03:31;;;;;;;;;;;;;;;20.58;50.88;101207.16;5122337;27;20014;-40
2022/10/16 11:06:00;;;;;;;;;;;;;;;20.57;50.73;101214.66;5115499;27;19966;-41
2022/10/16 11:08:28;;;;;;;;;;;;;;;20.58;50.72;101221.81;5133933;27;20386;-39
2022/10/16 11:10:57;;;;;;;;;;;;;;;20.58;50.90;101212.69;5138542;27;20026;-41
2022/10/16 11:13:39;;;;;;;;;;;;;;;20.58;50.67;101218.22;5138054;27;19981;-39
2022/10/16 11:16:10;;;;;;;;;;;;;;;20.57;50.84;101222.94;5112722;27;19971;-39
2022/10/16 11:18:40;;;;;;;;;;;;;;;20.58;50.95;101212.69;5136049;27;20022;-40
2022/10/16 11:21:07;;;;;;;;;;;;;;;20.57;50.85;101216.59;5133926;27;20008;-39
2022/10/16 11:23:38;;;;;;;;;;;;;;;20.57;50.61;101219.34;5118677;27;20445;-39
2022/10/16 11:26:06;;;;;;;;;;;;;;;20.57;50.88;101220.19;5118896;27;19955;-40
2022/10/16 11:28:34;;;;;;;;;;;;;;;20.57;50.66;101216.59;5117530;28;20014;-40
2022/10/16 11:31:02;;;;;;;;;;;;;;;20.57;50.72;101217.41;5120622;27;20342;-39
2022/10/16 11:33:31;;;;;;;;;;;;;;;20.57;50.84;101217.41;5138132;27;20331;-40
2022/10/16 11:36:00;;;;;;;;;;;;;;;20.58;50.80;101210.75;5133662;27;20011;-40
2022/10/16 11:38:29;;;;;;;;;;;;;;;20.57;50.77;101214.66;5118747;27;20014;-40
2022/10/16 11:40:57;;;;;;;;;;;;;;;20.57;50.88;101209.13;5136562;27;19969;-39
2022/10/16 11:43:25;;;;;;;;;;;;;;;20.57;50.65;101216.59;5137394;27;20070;-40
2022/10/16 11:45:52;;;;;;;;;;;;;;;20.57;50.73;101222.94;5115259;27;20118;-40
2022/10/16 11:48:38;;;;;;;;;;;;;;;20.58;50.80;101230.13;5115931;27;19932;-40
2022/10/16 11:51:09;;;;;;;;;;;;;;;20.57;50.68;101227.66;5119018;27;20009;-39
2022/10/16 11:53:41;;;;;;;;;;;;;;;20.57;50.64;101220.19;5134610;27;20481;-41
2022/10/16 11:56:06;;;;;;;;;;;;;;;20.58;50.74;101221.00;5134094;27;20075;-40
2022/10/16 11:58:38;;;;;;;;;;;;;;;20.57;50.81;101225.72;5138026;27;19935;-39
2022/10/16 12:01:24;;;;;;;;;;;;;;;20.57;50.86;101228.47;5135626;27;20032;-39
2022/10/16 12:04:14;;;;;;;;;;;;;;;20.58;50.84;101229.31;5125783;27;19927;-39
2022/10/16 12:06:49;;;;;;;;;;;;;;;20.57;50.74;101220.19;5116752;27;19958;-42
2022/10/16 12:09:17;;;;;;;;;;;;;;;20.58;50.82;101232.91;5138478;27;20021;-39
2022/10/16 12:11:43;;;;;;;;;;;;;;;20.58;50.82;101223.78;5129597;27;20018;-41
2022/10/16 12:16:55;;;;;;;;;;;;;;;20.58;50.69;101226.53;5164303;27;20357;-40
2022/10/16 12:19:21;;;;;;;;;;;;;;;20.57;50.75;101225.72;5145310;27;20082;-39
2022/10/16 12:21:46;;;;;;;;;;;;;;;20.58;50.81;101221.00;5162828;27;20327;-39
2022/10/16 12:24:32;;;;;;;;;;;;;;;20.58;50.86;101229.31;5163917;27;20005;-39
2022/10/16 12:26:57;;;;;;;;;;;;;;;20.58;50.90;101221.00;5146585;27;19966;-39
2022/10/16 12:29:28;;;;;;;;;;;;;;;20.58;50.67;101218.22;5149445;27;20435;-39
2022/10/16 12:31:53;;;;;;;;;;;;;;;20.58;50.82;101218.22;5142312;27;20379;-41
2022/10/16 12:34:28;;;;;;;;;;;;;;;20.58;50.80;101212.69;5142524;27;19928;-39
2022/10/16 12:36:53;;;;;;;;;;;;;;;20.58;50.88;101215.47;5119804;27;20036;-39
2022/10/16 12:39:21;;;;;;;;;;;;;;;20.57;50.71;101217.41;5144817;27;19932;-39
2022/10/16 12:41:46;;;;;;;;;;;;;;;20.58;50.84;101221.00;5124236;27;19980;-40